Time;durP1;ratioP1;P1;durP2;ratioP2;P2;SDS_P1;SDS_P2;PMS_P1;PMS_P2;Temp;Humidity;BMP_temperature;BMP_pressure;BME280_temperature;BME280_humidity;BME280_pressure;Samples;Min_cycle;Max_cycle;Signal;HPM_P1;HPM_P2
2022/08/22 00:00:48;0.00;0.00;0.62;0.00;0.00;0.62;3.83;3.00;;;27.90;29.00;;;;;;2237558;62;20363;-66
2022/08/22 00:03:45;0.00;0.00;0.62;0.00;0.00;0.62;3.87;3.20;;;27.90;29.10;;;;;;2238275;62;20371;-68
2022/08/22 00:06:40;0.00;0.00;0.62;0.00;0.00;0.62;4.40;3.30;;;27.90;29.20;;;;;;2240206;61;20414;-71
2022/08/22 00:09:34;0.00;0.00;0.62;0.00;0.00;0.62;4.70;2.80;;;27.90;29.20;;;;;;2242238;62;20410;-70
2022/08/22 00:12:33;0.00;0.00;0.62;0.00;0.00;0.62;3.90;3.13;;;27.90;29.20;;;;;;2241756;62;20390;-68
2022/08/22 00:15:25;0.00;0.00;0.62;0.00;0.00;0.62;3.40;2.93;;;27.90;29.20;;;;;;2241396;62;20367;-70
2022/08/22 00:18:16;0.00;0.00;0.62;0.00;0.00;0.62;4.30;2.70;;;27.90;29.10;;;;;;2242110;62;20423;-66
2022/08/22 00:21:09;0.00;0.00;0.62;0.00;0.00;0.62;3.33;2.83;;;27.90;29.10;;;;;;2241538;62;20358;-71
2022/08/22 00:24:04;0.00;0.00;0.62;0.00;0.00;0.62;3.17;2.60;;;27.90;29.20;;;;;;2242186;62;20398;-69
2022/08/22 00:26:58;0.00;0.00;0.62;0.00;0.00;0.62;3.37;2.80;;;27.90;29.20;;;;;;2241727;61;20691;-68
2022/08/22 00:29:48;0.00;0.00;0.62;0.00;0.00;0.62;3.60;3.07;;;28.00;29.20;;;;;;2241670;62;20410;-72
2022/08/22 00:32:41;0.00;0.00;0.62;0.00;0.00;0.62;2.83;2.60;;;28.00;29.10;;;;;;2242411;62;20777;-66
2022/08/22 00:35:33;0.00;0.00;0.62;0.00;0.00;0.62;3.13;2.47;;;27.90;29.10;;;;;;2241982;61;20383;-66
2022/08/22 00:38:25;0.00;0.00;0.62;0.00;0.00;0.62;3.43;2.57;;;28.00;29.20;;;;;;2241962;62;20598;-69
2022/08/22 00:41:44;0.00;0.00;0.62;0.00;0.00;0.62;4.23;3.83;;;28.00;29.20;;;;;;2241884;62;20706;-70
2022/08/22 00:45:15;0.00;0.00;0.62;0.00;0.00;0.62;3.00;2.63;;;28.00;29.20;;;;;;2241369;62;20397;-66
2022/08/22 00:48:24;0.00;0.00;0.62;0.00;0.00;0.62;4.17;3.23;;;28.00;29.20;;;;;;2238271;62;20412;-68
2022/08/22 00:51:57;0.00;0.00;0.62;0.00;0.00;0.62;6.47;3.80;;;28.00;29.30;;;;;;2237497;62;20400;-68
2022/08/22 00:55:21;0.00;0.00;0.62;0.00;0.00;0.62;3.23;2.73;;;28.00;29.30;;;;;;2237676;62;20640;-70
2022/08/22 00:58:44;0.00;0.00;0.62;0.00;0.00;0.62;5.40;3.10;;;28.00;29.20;;;;;;2237808;62;20772;-69
2022/08/22 01:01:35;0.00;0.00;0.62;0.00;0.00;0.62;3.40;3.00;;;28.00;29.20;;;;;;2237911;62;20412;-72
2022/08/22 01:04:48;0.00;0.00;0.62;0.00;0.00;0.62;3.20;2.90;;;28.10;29.20;;;;;;2237668;62;20420;-69
2022/08/22 01:08:00;0.00;0.00;0.62;0.00;0.00;0.62;3.47;2.53;;;28.10;29.20;;;;;;2367303;46;20407;-67
2022/08/22 01:11:03;0.00;0.00;0.62;0.00;0.00;0.62;3.47;3.17;;;28.10;29.20;;;;;;2237799;62;20663;-71
2022/08/22 01:14:13;0.00;0.00;0.62;0.00;0.00;0.62;2.50;2.30;;;28.10;29.20;;;;;;2237289;62;20662;-67
2022/08/22 01:17:43;0.00;0.00;0.62;0.00;0.00;0.62;3.87;2.60;;;28.10;29.20;;;;;;2241480;62;20582;-69
2022/08/22 01:21:30;0.00;0.00;0.62;0.00;0.00;0.62;2.73;2.10;;;28.10;29.10;;;;;;2240901;62;20362;-68
2022/08/22 01:25:38;0.00;0.00;0.62;0.00;0.00;0.62;2.60;2.40;;;28.20;29.10;;;;;;2242063;62;20655;-68
2022/08/22 01:29:14;0.00;0.00;0.62;0.00;0.00;0.62;3.23;2.40;;;28.10;29.10;;;;;;2237114;62;20645;-70
2022/08/22 01:32:40;0.00;0.00;0.62;0.00;0.00;0.62;3.47;2.53;;;28.20;29.10;;;;;;2238116;62;20399;-69
2022/08/22 01:35:55;0.00;0.00;0.62;0.00;0.00;0.62;2.80;2.47;;;28.20;29.10;;;;;;2235741;61;20397;-68
2022/08/22 01:39:33;0.00;0.00;0.62;0.00;0.00;0.62;3.27;2.97;;;28.20;29.10;;;;;;2241959;62;20374;-68
2022/08/22 01:43:07;0.00;0.00;0.62;0.00;0.00;0.62;3.50;2.70;;;28.20;29.10;;;;;;2241552;62;20361;-66
2022/08/22 01:46:22;0.00;0.00;0.62;0.00;0.00;0.62;3.13;2.57;;;28.20;29.10;;;;;;2233071;62;21017;-68
2022/08/22 01:49:19;0.00;0.00;0.62;0.00;0.00;0.62;4.73;2.37;;;28.20;29.10;;;;;;2232798;62;20445;-71
2022/08/22 01:52:11;0.00;0.00;0.62;0.00;0.00;0.62;2.90;2.60;;;28.20;29.10;;;;;;2241365;62;20422;-66
2022/08/22 01:55:00;0.00;0.00;0.62;0.00;0.00;0.62;2.90;2.53;;;28.20;29.60;;;;;;2240910;61;20363;-68
2022/08/22 01:57:52;0.00;0.00;0.62;0.00;0.00;0.62;2.77;2.50;;;28.20;29.10;;;;;;2241139;62;20418;-66
2022/08/22 02:01:00;0.00;0.00;0.62;0.00;0.00;0.62;4.60;2.70;;;28.20;29.10;;;;;;2241977;62;20676;-69
2022/08/22 02:04:00;0.00;0.00;0.62;0.00;0.00;0.62;3.13;2.63;;;28.30;29.20;;;;;;2241498;62;20366;-68
2022/08/22 02:06:58;0.00;0.00;0.62;0.00;0.00;0.62;4.03;2.97;;;28.30;29.20;;;;;;2240999;61;20470;-70
2022/08/22 02:10:00;0.00;0.00;0.62;0.00;0.00;0.62;2.87;2.13;;;28.30;29.20;;;;;;2241156;62;20402;-65
2022/08/22 02:13:05;0.00;0.00;0.62;0.00;0.00;0.62;6.50;2.63;;;28.30;29.20;;;;;;2240804;62;20378;-69
2022/08/22 02:16:08;0.00;0.00;0.62;0.00;0.00;0.62;2.77;2.13;;;28.30;29.20;;;;;;2241321;62;20373;-67
2022/08/22 02:19:06;0.00;0.00;0.62;0.00;0.00;0.62;3.50;2.30;;;28.30;29.20;;;;;;2241259;62;20617;-70
2022/08/22 02:22:00;0.00;0.00;0.62;0.00;0.00;0.62;2.50;2.30;;;28.30;29.20;;;;;;2241321;62;20426;-66
2022/08/22 02:24:57;0.00;0.00;0.62;0.00;0.00;0.62;3.27;2.60;;;28.30;29.20;;;;;;2241115;62;20366;-66
2022/08/22 02:27:56;0.00;0.00;0.62;0.00;0.00;0.62;3.43;2.70;;;28.30;29.20;;;;;;2240493;62;20751;-68
2022/08/22 02:30:53;0.00;0.00;0.62;0.00;0.00;0.62;5.83;3.20;;;28.30;29.20;;;;;;2241702;62;20750;-69
2022/08/22 02:33:51;0.00;0.00;0.62;0.00;0.00;0.62;2.83;2.50;;;28.30;29.20;;;;;;2242117;62;20736;-70
2022/08/22 02:36:46;0.00;0.00;0.62;0.00;0.00;0.62;3.47;2.87;;;28.30;29.30;;;;;;2241724;61;20620;-70
2022/08/22 02:39:38;0.00;0.00;0.62;0.00;0.00;0.62;3.13;2.70;;;28.30;29.30;;;;;;2241933;62;20474;-65
2022/08/22 02:42:33;0.00;0.00;0.62;0.00;0.00;0.62;2.67;2.47;;;28.20;29.20;;;;;;2241640;62;20374;-67
2022/08/22 02:45:33;0.00;0.00;0.62;0.00;0.00;0.62;3.47;2.93;;;28.20;29.20;;;;;;2241958;61;20391;-71
2022/08/22 02:48:31;0.00;0.00;0.62;0.00;0.00;0.62;2.83;2.27;;;28.30;29.20;;;;;;2241876;62;20383;-68
2022/08/22 02:51:23;0.00;0.00;0.62;0.00;0.00;0.62;3.27;2.10;;;28.20;29.10;;;;;;2241680;62;20366;-69
2022/08/22 02:54:18;0.00;0.00;0.62;0.00;0.00;0.62;3.53;2.83;;;28.20;29.10;;;;;;2241939;62;20366;-68
2022/08/22 02:57:10;0.00;0.00;0.62;0.00;0.00;0.62;3.53;2.80;;;28.20;29.10;;;;;;2241385;62;20434;-68
2022/08/22 03:00:14;0.00;0.00;0.62;0.00;0.00;0.62;4.17;2.67;;;28.20;29.10;;;;;;2242213;62;20829;-71
2022/08/22 03:03:13;0.00;0.00;0.62;0.00;0.00;0.62;4.00;3.20;;;28.30;29.20;;;;;;2241929;62;20355;-67
2022/08/22 03:06:04;0.00;0.00;0.62;0.00;0.00;0.62;3.73;2.90;;;28.20;29.10;;;;;;2223721;61;1102281;-69
2022/08/22 03:09:17;0.00;0.00;0.62;0.00;0.00;0.62;3.90;3.17;;;28.20;29.20;;;;;;2242131;62;20395;-69
2022/08/22 03:12:18;0.00;0.00;0.62;0.00;0.00;0.62;3.87;2.90;;;28.20;29.10;;;;;;2241683;62;20758;-71
2022/08/22 03:15:15;0.00;0.00;0.62;0.00;0.00;0.62;4.63;3.13;;;28.20;29.20;;;;;;2242249;62;20446;-66
2022/08/22 03:18:13;0.00;0.00;0.62;0.00;0.00;0.62;3.90;3.50;;;28.10;29.10;;;;;;2242508;62;20410;-69
2022/08/22 03:21:14;0.00;0.00;0.62;0.00;0.00;0.62;4.17;3.60;;;28.10;29.20;;;;;;2242010;62;20370;-70
2022/08/22 03:24:08;0.00;0.00;0.62;0.00;0.00;0.62;4.50;3.20;;;28.10;29.20;;;;;;2242085;62;20406;-68
2022/08/22 03:27:01;0.00;0.00;0.62;0.00;0.00;0.62;2.67;2.30;;;28.10;29.20;;;;;;2241523;62;20614;-68
2022/08/22 03:29:52;0.00;0.00;0.62;0.00;0.00;0.62;2.87;2.57;;;28.10;29.20;;;;;;2242267;62;20436;-72
2022/08/22 03:32:54;0.00;0.00;0.62;0.00;0.00;0.62;3.00;2.70;;;28.10;29.20;;;;;;2241995;62;20386;-68
2022/08/22 03:35:58;0.00;0.00;0.62;0.00;0.00;0.62;3.17;2.70;;;28.10;29.20;;;;;;2241387;61;20387;-69
2022/08/22 03:39:03;0.00;0.00;0.62;0.00;0.00;0.62;3.00;2.67;;;28.10;29.20;;;;;;2242017;62;20366;-69
2022/08/22 03:42:12;0.00;0.00;0.62;0.00;0.00;0.62;3.73;2.97;;;28.10;29.20;;;;;;2241416;62;20427;-69
2022/08/22 03:45:55;0.00;0.00;0.62;0.00;0.00;0.62;2.87;2.53;;;28.10;29.20;;;;;;2242093;62;20366;-67
2022/08/22 03:49:36;0.00;0.00;0.62;0.00;0.00;0.62;3.80;2.87;;;28.10;29.20;;;;;;2237676;61;20785;-66
2022/08/22 03:53:06;0.00;0.00;0.62;0.00;0.00;0.62;3.73;2.60;;;28.10;29.20;;;;;;2240105;61;20434;-70
2022/08/22 03:56:43;0.00;0.00;0.62;0.00;0.00;0.62;4.07;2.73;;;28.10;29.20;;;;;;2243420;61;20447;-68
2022/08/22 04:00:00;0.00;0.00;0.62;0.00;0.00;0.62;3.33;2.57;;;28.20;29.20;;;;;;2242151;62;20370;-67
2022/08/22 04:03:40;0.00;0.00;0.62;0.00;0.00;0.62;2.93;2.13;;;28.10;29.20;;;;;;2241839;62;20382;-66
2022/08/22 04:07:16;0.00;0.00;0.62;0.00;0.00;0.62;3.07;2.50;;;28.10;29.20;;;;;;2242039;61;20413;-67
2022/08/22 04:10:39;0.00;0.00;0.62;0.00;0.00;0.62;3.27;2.40;;;28.10;29.20;;;;;;2241638;62;20607;-66
2022/08/22 04:14:24;0.00;0.00;0.62;0.00;0.00;0.62;2.63;2.43;;;28.10;29.20;;;;;;2240994;62;20406;-70
2022/08/22 04:17:36;0.00;0.00;0.62;0.00;0.00;0.62;2.70;2.50;;;28.20;29.20;;;;;;2236707;62;20700;-67
2022/08/22 04:21:01;0.00;0.00;0.62;0.00;0.00;0.62;3.13;2.37;;;28.20;29.30;;;;;;2234434;61;20595;-67
2022/08/22 04:24:43;0.00;0.00;0.62;0.00;0.00;0.62;3.33;2.70;;;28.10;29.80;;;;;;2245718;61;20482;-71
2022/08/22 04:27:39;0.00;0.00;0.62;0.00;0.00;0.62;2.90;2.60;;;28.10;29.30;;;;;;2259043;62;20394;-65
2022/08/22 04:30:32;0.00;0.00;0.62;0.00;0.00;0.62;3.87;2.53;;;28.10;29.30;;;;;;2237799;62;20365;-71
2022/08/22 04:33:24;0.00;0.00;0.62;0.00;0.00;0.62;3.13;2.30;;;28.10;29.30;;;;;;2237364;62;20464;-66
2022/08/22 04:36:18;0.00;0.00;0.62;0.00;0.00;0.62;3.80;2.93;;;28.10;29.40;;;;;;2240241;61;20730;-69
2022/08/22 04:39:09;0.00;0.00;0.62;0.00;0.00;0.62;5.63;3.40;;;28.10;29.50;;;;;;2241695;62;20382;-67
2022/08/22 04:42:01;0.00;0.00;0.62;0.00;0.00;0.62;4.70;3.37;;;28.10;29.50;;;;;;2241403;62;20750;-65
2022/08/22 04:44:54;0.00;0.00;0.62;0.00;0.00;0.62;4.50;2.90;;;28.00;29.50;;;;;;2241974;62;20435;-69
2022/08/22 04:47:45;0.00;0.00;0.62;0.00;0.00;0.62;2.83;2.50;;;28.00;29.50;;;;;;2241245;62;20410;-70
2022/08/22 04:50:36;0.00;0.00;0.62;0.00;0.00;0.62;3.37;2.73;;;28.00;29.50;;;;;;2242106;62;20367;-69
2022/08/22 04:54:01;0.00;0.00;0.62;0.00;0.00;0.62;3.10;2.73;;;28.00;29.50;;;;;;2241436;62;20397;-70
2022/08/22 04:57:04;0.00;0.00;0.62;0.00;0.00;0.62;3.03;2.73;;;28.00;29.50;;;;;;2241261;61;20398;-70
2022/08/22 04:59:56;0.00;0.00;0.62;0.00;0.00;0.62;3.10;2.73;;;28.00;29.50;;;;;;2241605;62;20354;-67
2022/08/22 05:02:49;0.00;0.00;0.62;0.00;0.00;0.62;2.60;2.30;;;28.00;29.50;;;;;;2241320;62;20433;-70
2022/08/22 05:05:40;0.00;0.00;0.62;0.00;0.00;0.62;3.50;2.47;;;28.00;29.50;;;;;;2241766;61;20731;-66
2022/08/22 05:08:32;0.00;0.00;0.62;0.00;0.00;0.62;3.07;2.60;;;28.00;29.50;;;;;;2241649;62;20391;-70
2022/08/22 05:11:20;0.00;0.00;0.62;0.00;0.00;0.62;2.60;2.40;;;28.00;29.50;;;;;;2241289;62;20395;-66
2022/08/22 05:14:15;0.00;0.00;0.62;0.00;0.00;0.62;3.93;2.30;;;28.00;29.50;;;;;;2241424;62;20403;-68
2022/08/22 05:17:04;0.00;0.00;0.62;0.00;0.00;0.62;3.70;2.80;;;28.00;29.50;;;;;;2241534;62;20395;-70
2022/08/22 05:19:55;0.00;0.00;0.62;0.00;0.00;0.62;4.40;2.90;;;28.00;29.50;;;;;;2242020;62;20403;-71
2022/08/22 05:22:46;0.00;0.00;0.62;0.00;0.00;0.62;3.03;2.70;;;28.00;29.50;;;;;;2241563;62;20415;-70
2022/08/22 05:25:36;0.00;0.00;0.62;0.00;0.00;0.62;4.30;2.50;;;28.00;29.50;;;;;;2241095;61;20439;-69
2022/08/22 05:28:33;0.00;0.00;0.62;0.00;0.00;0.62;3.63;3.00;;;28.00;29.50;;;;;;2241854;62;20381;-70
2022/08/22 05:31:36;0.00;0.00;0.62;0.00;0.00;0.62;3.10;2.80;;;28.00;29.50;;;;;;2241672;62;20595;-66
2022/08/22 05:34:27;0.00;0.00;0.62;0.00;0.00;0.62;2.23;2.03;;;28.00;29.50;;;;;;2241557;62;20434;-70
2022/08/22 05:37:16;0.00;0.00;0.62;0.00;0.00;0.62;2.83;2.53;;;28.10;29.60;;;;;;2241395;62;20402;-68
2022/08/22 05:40:02;0.00;0.00;0.62;0.00;0.00;0.62;4.37;2.90;;;28.10;29.60;;;;;;2241250;62;20359;-68
2022/08/22 05:42:47;0.00;0.00;0.62;0.00;0.00;0.62;3.53;2.60;;;28.10;29.60;;;;;;2241841;62;20403;-68
2022/08/22 05:45:35;0.00;0.00;0.62;0.00;0.00;0.62;2.60;2.30;;;28.10;29.60;;;;;;2241474;62;20398;-66
2022/08/22 05:48:29;0.00;0.00;0.62;0.00;0.00;0.62;3.30;2.73;;;28.10;29.60;;;;;;2241261;62;20390;-65
2022/08/22 05:51:20;0.00;0.00;0.62;0.00;0.00;0.62;3.37;2.63;;;28.10;29.60;;;;;;2241947;62;20394;-67
2022/08/22 05:54:13;0.00;0.00;0.62;0.00;0.00;0.62;4.17;3.07;;;28.10;29.70;;;;;;2241613;62;20375;-69
2022/08/22 05:57:08;0.00;0.00;0.62;0.00;0.00;0.62;5.67;2.97;;;28.10;29.70;;;;;;2241715;62;20429;-67
2022/08/22 06:00:00;0.00;0.00;0.62;0.00;0.00;0.62;3.70;3.33;;;28.10;29.70;;;;;;2241213;62;20439;-67
2022/08/22 06:03:12;0.00;0.00;0.62;0.00;0.00;0.62;4.20;3.27;;;28.10;29.80;;;;;;2241271;62;20361;-70
2022/08/22 06:06:05;0.00;0.00;0.62;0.00;0.00;0.62;4.60;3.33;;;28.10;29.80;;;;;;2241823;61;20490;-68
2022/08/22 06:09:00;0.00;0.00;0.62;0.00;0.00;0.62;3.00;2.67;;;28.10;29.80;;;;;;2242364;62;20375;-67
2022/08/22 06:11:54;0.00;0.00;0.62;0.00;0.00;0.62;5.30;3.63;;;28.10;29.80;;;;;;2242720;62;20746;-67
2022/08/22 06:14:46;0.00;0.00;0.62;0.00;0.00;0.62;4.37;2.80;;;28.10;29.80;;;;;;2242302;62;20414;-68
2022/08/22 06:17:37;0.00;0.00;0.62;0.00;0.00;0.62;3.30;3.00;;;28.10;29.80;;;;;;2597394;46;20390;-69
2022/08/22 06:20:36;0.00;0.00;0.62;0.00;0.00;0.62;5.07;2.90;;;28.20;29.80;;;;;;2242548;62;20791;-67
2022/08/22 06:23:26;0.00;0.00;0.62;0.00;0.00;0.62;3.00;2.67;;;28.20;29.80;;;;;;2244540;61;20387;-70
2022/08/22 06:26:14;0.00;0.00;0.62;0.00;0.00;0.62;3.60;2.80;;;28.10;29.80;;;;;;2243924;61;20365;-68
2022/08/22 06:29:01;0.00;0.00;0.62;0.00;0.00;0.62;5.33;2.70;;;28.20;29.80;;;;;;2246193;61;20764;-68
2022/08/22 06:31:48;0.00;0.00;0.62;0.00;0.00;0.62;3.70;3.23;;;28.20;29.80;;;;;;2245795;61;20381;-67
2022/08/22 06:34:39;0.00;0.00;0.62;0.00;0.00;0.62;4.43;3.17;;;28.20;29.90;;;;;;2246323;61;20409;-67
2022/08/22 06:37:32;0.00;0.00;0.62;0.00;0.00;0.62;5.30;3.20;;;28.20;29.90;;;;;;2245669;61;20384;-68
2022/08/22 06:40:18;0.00;0.00;0.62;0.00;0.00;0.62;3.33;3.03;;;28.20;29.90;;;;;;2245816;61;20367;-67
2022/08/22 06:43:05;0.00;0.00;0.62;0.00;0.00;0.62;7.10;3.43;;;28.20;29.90;;;;;;2246475;61;20353;-68
2022/08/22 06:45:51;0.00;0.00;0.62;0.00;0.00;0.62;3.93;3.33;;;28.30;29.90;;;;;;2244345;61;20435;-63
2022/08/22 06:48:37;0.00;0.00;0.62;0.00;0.00;0.62;3.87;3.13;;;28.20;29.90;;;;;;2242630;62;20577;-65
2022/08/22 06:51:25;0.00;0.00;0.62;0.00;0.00;0.62;4.67;3.73;;;28.20;29.90;;;;;;2242273;62;20387;-65
2022/08/22 06:54:17;0.00;0.00;0.62;0.00;0.00;0.62;5.00;3.30;;;28.30;29.90;;;;;;2241600;62;20370;-66
2022/08/22 06:57:05;0.00;0.00;0.62;0.00;0.00;0.62;4.30;3.70;;;28.30;29.90;;;;;;2242290;62;20515;-66
2022/08/22 06:59:52;0.00;0.00;0.62;0.00;0.00;0.62;5.73;4.07;;;28.30;29.90;;;;;;2242125;62;20391;-69
2022/08/22 07:02:41;0.00;0.00;0.62;0.00;0.00;0.62;3.73;3.07;;;28.30;30.00;;;;;;2241204;62;20363;-65
2022/08/22 07:05:34;0.00;0.00;0.62;0.00;0.00;0.62;6.77;3.60;;;28.30;30.00;;;;;;2242176;61;20765;-64
2022/08/22 07:08:21;0.00;0.00;0.62;0.00;0.00;0.62;3.73;3.37;;;28.30;30.00;;;;;;2241569;62;20459;-64
2022/08/22 07:11:14;0.00;0.00;0.62;0.00;0.00;0.62;4.97;4.20;;;28.30;30.00;;;;;;2244772;61;20386;-77
2022/08/22 07:14:03;0.00;0.00;0.62;0.00;0.00;0.62;5.40;3.23;;;28.30;30.00;;;;;;2242144;62;20448;-74
2022/08/22 07:16:56;0.00;0.00;0.62;0.00;0.00;0.62;3.70;3.30;;;28.30;30.00;;;;;;2241125;62;20782;-62
2022/08/22 07:19:54;0.00;0.00;0.62;0.00;0.00;0.62;4.23;3.00;;;28.30;30.00;;;;;;2242392;62;20363;-68
2022/08/22 07:22:38;0.00;0.00;0.62;0.00;0.00;0.62;3.80;2.50;;;28.30;30.00;;;;;;2241943;62;20394;-64
2022/08/22 07:25:25;0.00;0.00;0.62;0.00;0.00;0.62;3.60;2.90;;;28.30;29.90;;;;;;2241956;62;20398;-66
2022/08/22 07:28:22;0.00;0.00;0.62;0.00;0.00;0.62;3.33;3.00;;;28.30;29.90;;;;;;2241971;62;20479;-65
2022/08/22 07:31:14;0.00;0.00;0.62;0.00;0.00;0.62;3.20;2.67;;;28.30;29.90;;;;;;2241567;62;20367;-63
2022/08/22 07:34:27;0.00;0.00;0.62;0.00;0.00;0.62;2.90;2.50;;;28.30;29.90;;;;;;2242333;62;20371;-65
2022/08/22 07:37:16;0.00;0.00;0.62;0.00;0.00;0.62;3.83;2.70;;;28.30;29.80;;;;;;2245622;61;20413;-64
2022/08/22 07:40:21;0.00;0.00;0.62;0.00;0.00;0.62;5.20;3.00;;;28.30;29.80;;;;;;2245783;61;20650;-68
2022/08/22 07:43:22;0.00;0.00;0.62;0.00;0.00;0.62;4.30;3.00;;;28.30;29.80;;;;;;2245834;61;20574;-69
2022/08/22 07:46:22;0.00;0.00;0.62;0.00;0.00;0.62;6.43;2.77;;;28.30;29.90;;;;;;2243088;61;20385;-66
2022/08/22 07:49:15;0.00;0.00;0.62;0.00;0.00;0.62;3.73;2.60;;;28.30;29.90;;;;;;2242390;62;20378;-68
2022/08/22 07:52:05;0.00;0.00;0.62;0.00;0.00;0.62;3.27;2.73;;;28.30;29.90;;;;;;2242173;62;20391;-74
2022/08/22 07:54:56;0.00;0.00;0.62;0.00;0.00;0.62;2.53;2.33;;;28.30;29.90;;;;;;2242022;62;20403;-65
2022/08/22 07:57:46;0.00;0.00;0.62;0.00;0.00;0.62;4.10;2.60;;;28.40;29.90;;;;;;2241795;62;20378;-65
2022/08/22 08:00:33;0.00;0.00;0.62;0.00;0.00;0.62;4.07;2.63;;;28.40;29.90;;;;;;2242108;62;20362;-68
2022/08/22 08:03:22;0.00;0.00;0.62;0.00;0.00;0.62;3.57;2.30;;;28.40;29.90;;;;;;2242513;62;20347;-72
2022/08/22 08:06:10;0.00;0.00;0.62;0.00;0.00;0.62;2.90;2.60;;;28.40;29.90;;;;;;2241745;61;20366;-74
2022/08/22 08:08:56;0.00;0.00;0.62;0.00;0.00;0.62;4.40;2.90;;;28.40;29.90;;;;;;2241665;62;20370;-66
2022/08/22 08:11:43;0.00;0.00;0.62;0.00;0.00;0.62;3.80;2.60;;;28.40;29.90;;;;;;2241846;62;20362;-66
2022/08/22 08:14:29;0.00;0.00;0.62;0.00;0.00;0.62;3.93;1.90;;;28.40;29.90;;;;;;2241851;62;20386;-63
2022/08/22 08:17:19;0.00;0.00;0.62;0.00;0.00;0.62;5.50;2.80;;;28.40;29.80;;;;;;2241820;62;20395;-65
2022/08/22 08:20:10;0.00;0.00;0.62;0.00;0.00;0.62;4.20;2.80;;;28.40;29.80;;;;;;2241905;62;20615;-63
2022/08/22 08:22:58;0.00;0.00;0.62;0.00;0.00;0.62;4.57;2.40;;;28.40;29.80;;;;;;2241613;62;20362;-63
2022/08/22 08:25:56;0.00;0.00;0.62;0.00;0.00;0.62;4.30;2.90;;;28.40;29.70;;;;;;2241940;61;20383;-64
2022/08/22 08:28:48;0.00;0.00;0.62;0.00;0.00;0.62;7.30;2.30;;;28.40;29.70;;;;;;2241692;62;20403;-61
2022/08/22 08:31:38;0.00;0.00;0.62;0.00;0.00;0.62;4.57;2.53;;;28.40;29.70;;;;;;2241567;62;20407;-62
2022/08/22 08:34:26;0.00;0.00;0.62;0.00;0.00;0.62;4.93;2.70;;;28.40;29.70;;;;;;2241729;62;20727;-61
2022/08/22 08:37:19;0.00;0.00;0.62;0.00;0.00;0.62;4.20;2.23;;;28.40;29.70;;;;;;2240877;61;20635;-61
2022/08/22 08:40:19;0.00;0.00;0.62;0.00;0.00;0.62;3.57;2.80;;;28.40;29.70;;;;;;2244465;61;20370;-66
2022/08/22 08:43:26;0.00;0.00;0.62;0.00;0.00;0.62;2.57;2.17;;;28.40;29.70;;;;;;2241830;62;20361;-63
2022/08/22 08:46:53;0.00;0.00;0.62;0.00;0.00;0.62;3.30;2.63;;;28.40;29.60;;;;;;2241324;62;20450;-62
2022/08/22 08:49:57;0.00;0.00;0.62;0.00;0.00;0.62;2.77;2.53;;;28.40;29.60;;;;;;2241794;62;20363;-65
2022/08/22 08:53:04;0.00;0.00;0.62;0.00;0.00;0.62;3.60;2.10;;;28.40;29.50;;;;;;2241212;62;20398;-63
2022/08/22 08:56:00;0.00;0.00;0.62;0.00;0.00;0.62;3.80;2.50;;;28.40;29.50;;;;;;2243494;61;20369;-60
2022/08/22 08:58:54;0.00;0.00;0.62;0.00;0.00;0.62;3.13;1.90;;;28.40;29.50;;;;;;2245764;61;20370;-64
2022/08/22 09:02:20;0.00;0.00;0.62;0.00;0.00;0.62;4.10;2.47;;;28.40;29.50;;;;;;2245948;61;20366;-64
2022/08/22 09:06:01;0.00;0.00;0.62;0.00;0.00;0.62;2.47;1.80;;;28.50;29.60;;;;;;2245176;61;20458;-63
2022/08/22 09:09:06;0.00;0.00;0.62;0.00;0.00;0.62;4.50;2.50;;;28.40;29.50;;;;;;2238688;61;20373;-65
2022/08/22 09:12:33;0.00;0.00;0.62;0.00;0.00;0.62;5.30;2.13;;;28.40;29.50;;;;;;2241783;62;20562;-61
2022/08/22 09:15:36;0.00;0.00;0.62;0.00;0.00;0.62;3.60;2.40;;;28.40;29.40;;;;;;2240922;61;20428;-67
2022/08/22 09:18:40;0.00;0.00;0.62;0.00;0.00;0.62;2.73;2.10;;;28.40;29.40;;;;;;2242123;62;20422;-64
2022/08/22 09:22:01;0.00;0.00;0.62;0.00;0.00;0.62;2.93;2.23;;;28.50;29.50;;;;;;2241520;62;20405;-64
2022/08/22 09:25:20;0.00;0.00;0.62;0.00;0.00;0.62;1.80;1.60;;;28.40;29.40;;;;;;2241917;62;20367;-61
2022/08/22 09:28:17;0.00;0.00;0.62;0.00;0.00;0.62;2.40;2.07;;;28.50;29.50;;;;;;2241595;62;20774;-64
2022/08/22 09:31:33;0.00;0.00;0.62;0.00;0.00;0.62;4.10;2.43;;;28.50;29.50;;;;;;2241712;62;20366;-62
2022/08/22 09:34:25;0.00;0.00;0.62;0.00;0.00;0.62;3.40;2.13;;;28.50;29.30;;;;;;2241556;62;20367;-63
2022/08/22 09:37:20;0.00;0.00;0.62;0.00;0.00;0.62;4.20;2.30;;;28.50;29.30;;;;;;2241136;62;20643;-62
2022/08/22 09:40:17;0.00;0.00;0.62;0.00;0.00;0.62;4.50;2.77;;;28.50;29.20;;;;;;2241875;62;20354;-63
2022/08/22 09:43:07;0.00;0.00;0.62;0.00;0.00;0.62;3.17;2.17;;;28.50;29.20;;;;;;2241663;62;20443;-65
2022/08/22 09:46:08;0.00;0.00;0.62;0.00;0.00;0.62;3.60;2.33;;;28.60;29.20;;;;;;2241484;61;20378;-62
2022/08/22 09:49:03;0.00;0.00;0.62;0.00;0.00;0.62;2.80;2.10;;;28.60;29.20;;;;;;2241540;62;20375;-62
2022/08/22 09:52:01;0.00;0.00;0.62;0.00;0.00;0.62;3.70;2.80;;;28.60;29.10;;;;;;2241251;62;20431;-62
2022/08/22 09:54:52;0.00;0.00;0.62;0.00;0.00;0.62;2.37;1.97;;;28.60;29.10;;;;;;2241838;62;20418;-61
2022/08/22 09:57:45;0.00;0.00;0.62;0.00;0.00;0.62;2.70;2.20;;;28.60;29.10;;;;;;2689635;46;20391;-63
2022/08/22 10:00:39;0.00;0.00;0.62;0.00;0.00;0.62;3.73;2.70;;;28.60;29.00;;;;;;2241401;62;20403;-64
2022/08/22 10:03:46;0.00;0.00;0.62;0.00;0.00;0.62;2.60;2.40;;;28.60;28.90;;;;;;2241534;62;20347;-61
2022/08/22 10:06:42;0.00;0.00;0.62;0.00;0.00;0.62;4.00;2.67;;;28.70;28.80;;;;;;2240963;61;20531;-64
2022/08/22 10:09:37;0.00;0.00;0.62;0.00;0.00;0.62;3.83;2.10;;;28.70;28.60;;;;;;2242107;62;20382;-65
2022/08/22 10:12:28;0.00;0.00;0.62;0.00;0.00;0.62;5.10;2.03;;;28.70;28.70;;;;;;2241521;62;20831;-65
2022/08/22 10:15:21;0.00;0.00;0.62;0.00;0.00;0.62;2.70;2.17;;;28.70;28.70;;;;;;2241161;62;20378;-63
2022/08/22 10:18:24;0.00;0.00;0.62;0.00;0.00;0.62;3.80;2.47;;;28.70;28.70;;;;;;2243730;61;20390;-61
2022/08/22 10:21:22;0.00;0.00;0.62;0.00;0.00;0.62;2.83;2.40;;;28.70;28.70;;;;;;2241128;62;20370;-62
2022/08/22 10:24:18;0.00;0.00;0.62;0.00;0.00;0.62;3.40;2.23;;;28.80;28.70;;;;;;2241765;62;20370;-60
2022/08/22 10:27:12;0.00;0.00;0.62;0.00;0.00;0.62;6.27;2.80;;;28.80;28.70;;;;;;2243673;61;20406;-63
2022/08/22 10:30:08;0.00;0.00;0.62;0.00;0.00;0.62;2.53;2.30;;;28.80;28.60;;;;;;2241248;62;20362;-64
2022/08/22 10:33:04;0.00;0.00;0.62;0.00;0.00;0.62;3.57;2.83;;;28.80;28.60;;;;;;2241467;62;20378;-63
2022/08/22 10:36:02;0.00;0.00;0.62;0.00;0.00;0.62;2.90;2.60;;;28.80;28.50;;;;;;2240544;61;20370;-62
2022/08/22 10:38:52;0.00;0.00;0.62;0.00;0.00;0.62;2.53;2.23;;;28.80;28.30;;;;;;2241396;62;20648;-64
2022/08/22 10:42:02;0.00;0.00;0.62;0.00;0.00;0.62;2.73;2.53;;;28.90;28.20;;;;;;2241534;62;20355;-62
2022/08/22 10:45:04;0.00;0.00;0.62;0.00;0.00;0.62;4.90;2.83;;;28.90;28.20;;;;;;2241096;62;20395;-64
2022/08/22 10:48:40;0.00;0.00;0.62;0.00;0.00;0.62;3.23;2.30;;;28.90;28.20;;;;;;2237547;62;20602;-62
2022/08/22 10:51:38;0.00;0.00;0.62;0.00;0.00;0.62;3.23;2.30;;;28.90;28.20;;;;;;2237139;62;20399;-61
2022/08/22 10:54:42;0.00;0.00;0.62;0.00;0.00;0.62;3.87;2.13;;;28.90;28.00;;;;;;2238541;62;20363;-60
2022/08/22 10:58:00;0.00;0.00;0.62;0.00;0.00;0.62;2.97;2.00;;;28.90;28.00;;;;;;2469076;54;20382;-62
2022/08/22 11:00:49;0.00;0.00;0.62;0.00;0.00;0.62;2.43;1.90;;;28.90;28.10;;;;;;2238589;62;20371;-63
2022/08/22 11:03:41;0.00;0.00;0.62;0.00;0.00;0.62;4.60;2.70;;;29.00;28.10;;;;;;2237763;62;20431;-60
2022/08/22 11:06:32;0.00;0.00;0.62;0.00;0.00;0.62;3.13;2.67;;;29.00;28.00;;;;;;2240218;61;20751;-64
2022/08/22 11:09:28;0.00;0.00;0.62;0.00;0.00;0.62;4.20;2.20;;;29.00;28.10;;;;;;2242431;62;20482;-62
2022/08/22 11:12:25;0.00;0.00;0.62;0.00;0.00;0.62;2.63;2.17;;;29.00;27.80;;;;;;2242073;62;20394;-62
2022/08/22 11:15:17;0.00;0.00;0.62;0.00;0.00;0.62;3.10;2.37;;;29.10;28.00;;;;;;2242333;62;20370;-64
2022/08/22 11:18:24;0.00;0.00;0.62;0.00;0.00;0.62;6.47;2.13;;;29.10;27.80;;;;;;2242065;62;20427;-65
2022/08/22 11:21:21;0.00;0.00;0.62;0.00;0.00;0.62;4.10;2.30;;;29.20;27.70;;;;;;2241711;62;20399;-62
2022/08/22 11:24:18;0.00;0.00;0.62;0.00;0.00;0.62;2.70;1.80;;;29.20;27.40;;;;;;2241742;61;20371;-61
2022/08/22 11:27:13;0.00;0.00;0.62;0.00;0.00;0.62;2.30;2.00;;;29.20;27.70;;;;;;2256038;61;20430;-65
2022/08/22 11:30:05;0.00;0.00;0.62;0.00;0.00;0.62;4.27;2.37;;;29.30;27.10;;;;;;2242330;62;20571;-61
2022/08/22 11:33:23;0.00;0.00;0.62;0.00;0.00;0.62;3.90;2.30;;;29.30;27.00;;;;;;2242002;62;20386;-62
2022/08/22 11:36:24;0.00;0.00;0.62;0.00;0.00;0.62;3.87;2.20;;;29.30;26.80;;;;;;2241147;62;20378;-61
2022/08/22 11:39:22;0.00;0.00;0.62;0.00;0.00;0.62;2.33;2.13;;;29.30;26.80;;;;;;2242105;62;20717;-60
2022/08/22 11:42:13;0.00;0.00;0.62;0.00;0.00;0.62;2.70;1.93;;;29.40;26.80;;;;;;2241509;62;20354;-60
2022/08/22 11:45:03;0.00;0.00;0.62;0.00;0.00;0.62;3.07;2.10;;;29.40;26.80;;;;;;2241876;62;20742;-64
2022/08/22 11:47:59;0.00;0.00;0.62;0.00;0.00;0.62;3.80;2.03;;;29.40;27.10;;;;;;2468804;54;20391;-64
2022/08/22 11:50:51;0.00;0.00;0.62;0.00;0.00;0.62;4.10;2.27;;;29.40;26.90;;;;;;2237505;62;20362;-64